Airfield :
LOGIN :

Register | Disclaimer

   EN    FR    IT 

 










Legend :    VFR   Marginal VFR   IFR   Intensive IFR   Very Intensive IFR
Visi :
Ceiling :
>= 8 km
>= 3000ft
5 to 8 km
1000 to 3000 ft
1500m to 5 km
500 to 1000 ft
800 to 1500m
200 to 500 ft
< 800m
< 200 ft
Symbols :   Thunderstorms  Fog  Heavy snow  Heavy precipitations  Wind > 20 kt
SIGMETs :     Misc.  Thunderstorms  Icing  Turbulence  Mountain Waves  Volcanic Ashes






- Airport Elevation : 157 ft
- IATA code : LIL


LFQQ - Lille Lesquin

CURRENT METAR :
  • 160600Z AUTO 20011KT CAVOK 10/08 Q1002 NOSIG

EXPIRED METARs :
  • 160530Z AUTO 20008KT 9999 FEW028 09/08 Q1002 NOSIG
  • 160500Z AUTO 20007KT 9999 FEW020 BKN028 BKN033 09/08 Q1002 TEMPO 3000 SHRA BKN013 BKN025CB
  • 160430Z AUTO 21008KT 9999 FEW020 SCT025 08/07 Q1001 TEMPO 3000 SHRA BKN013 BKN025CB
  • 160400Z AUTO 20006KT 9999 FEW015 07/06 Q1001 TEMPO 3000 SHRA BKN013 BKN025CB
  • 160330Z AUTO 19006KT CAVOK 07/06 Q1001 TEMPO 3000 SHRA BKN013 BKN025CB

TAF TAF LFQQ
Valid from the 16 at 06:00 until the 17 at 12:00 UTC


160500Z 1606/1712 21013KT 9999 BKN030
TEMPO 1608/1712 21015G25KT 3000 SHRA BKN007 BKN030CB
ATIS : +33 3 20 16 19 54



MET'MAP, your aeronautical weather chart ! - Copyright ORBIFLY December 2007 - Disclaimer

ORBIFLY MET'MAP TEAM :

Programming & Development : Alexandra Zaïnal
Concept & original design : Baudouin d'Aumeries
Assistance for programming : Marc-Olivier Méhu
Technical & hardware support : Manuel Goepfert

Contact : metmap@orbifly.com




SOURCES & CREDITS :

   NOAA